sensor_id;sensor_type;location;lat;lon;timestamp;pressure;altitude;pressure_sealevel;temperature;humidity
67397;BME280;57728;50.448;18.824;2023-05-02T00:01:35;97729.19;;;13.48;43.31
67397;BME280;57728;50.448;18.824;2023-05-02T00:03:36;97652.88;;;12.97;43.25
67397;BME280;57728;50.448;18.824;2023-05-02T00:05:38;97734.03;;;13.41;43.43
67397;BME280;57728;50.448;18.824;2023-05-02T00:07:40;97736.00;;;13.46;43.71
67397;BME280;57728;50.448;18.824;2023-05-02T00:09:42;97728.81;;;13.39;43.88
67397;BME280;57728;50.448;18.824;2023-05-02T00:11:45;97748.84;;;13.45;43.94
67397;BME280;57728;50.448;18.824;2023-05-02T00:13:47;97698.69;;;13.12;44.19
67397;BME280;57728;50.448;18.824;2023-05-02T00:15:48;97627.38;;;12.64;44.35
67397;BME280;57728;50.448;18.824;2023-05-02T00:17:51;97692.59;;;13.05;44.37
67397;BME280;57728;50.448;18.824;2023-05-02T00:19:52;97734.09;;;13.24;44.77
67397;BME280;57728;50.448;18.824;2023-05-02T00:21:53;97611.84;;;12.48;44.90
67397;BME280;57728;50.448;18.824;2023-05-02T00:23:55;97745.13;;;13.34;44.96
67397;BME280;57728;50.448;18.824;2023-05-02T00:26:01;97715.72;;;13.19;45.02
67397;BME280;57728;50.448;18.824;2023-05-02T00:28:02;97738.16;;;13.21;45.14
67397;BME280;57728;50.448;18.824;2023-05-02T00:30:04;97749.78;;;13.34;45.24
67397;BME280;57728;50.448;18.824;2023-05-02T00:32:06;97753.34;;;13.34;45.59
67397;BME280;57728;50.448;18.824;2023-05-02T00:34:07;97572.00;;;12.25;45.50
67397;BME280;57728;50.448;18.824;2023-05-02T00:36:17;97750.03;;;13.32;45.91
67397;BME280;57728;50.448;18.824;2023-05-02T00:38:19;97756.94;;;13.35;45.77
67397;BME280;57728;50.448;18.824;2023-05-02T00:40:21;97744.31;;;13.34;46.09
67397;BME280;57728;50.448;18.824;2023-05-02T00:42:23;97589.78;;;12.27;46.15
67397;BME280;57728;50.448;18.824;2023-05-02T00:44:24;97743.03;;;13.36;46.53
67397;BME280;57728;50.448;18.824;2023-05-02T00:46:26;97619.91;;;12.60;46.53
67397;BME280;57728;50.448;18.824;2023-05-02T00:48:28;97738.09;;;13.38;46.68
67397;BME280;57728;50.448;18.824;2023-05-02T00:50:31;97748.84;;;13.45;46.75
67397;BME280;57728;50.448;18.824;2023-05-02T00:52:34;97745.34;;;13.50;46.92
67397;BME280;57728;50.448;18.824;2023-05-02T00:54:37;97668.25;;;13.03;46.92
67397;BME280;57728;50.448;18.824;2023-05-02T00:56:41;97687.81;;;13.17;46.85
67397;BME280;57728;50.448;18.824;2023-05-02T00:58:45;97700.75;;;13.27;47.07
67397;BME280;57728;50.448;18.824;2023-05-02T01:08:40;97708.66;;;13.46;47.68
67397;BME280;57728;50.448;18.824;2023-05-02T01:11:13;97604.66;;;12.86;47.97
67397;BME280;57728;50.448;18.824;2023-05-02T01:13:31;97590.28;;;12.68;47.76
67397;BME280;57728;50.448;18.824;2023-05-02T01:15:38;97510.84;;;12.26;47.80
67397;BME280;57728;50.448;18.824;2023-05-02T01:17:43;97724.06;;;13.57;47.90
67397;BME280;57728;50.448;18.824;2023-05-02T01:19:53;97734.00;;;13.63;47.79
67397;BME280;57728;50.448;18.824;2023-05-02T01:22:01;97638.44;;;13.02;47.89
67397;BME280;57728;50.448;18.824;2023-05-02T01:24:23;97707.03;;;13.45;48.12
67397;BME280;57728;50.448;18.824;2023-05-02T01:29:06;97724.03;;;13.52;48.47
67397;BME280;57728;50.448;18.824;2023-05-02T01:31:10;97740.88;;;13.66;48.68
67397;BME280;57728;50.448;18.824;2023-05-02T01:33:15;97709.22;;;13.48;48.70
67397;BME280;57728;50.448;18.824;2023-05-02T01:35:20;97719.13;;;13.54;48.98
67397;BME280;57728;50.448;18.824;2023-05-02T01:37:26;97694.94;;;13.40;48.67
67397;BME280;57728;50.448;18.824;2023-05-02T01:39:31;97590.38;;;12.79;48.87
67397;BME280;57728;50.448;18.824;2023-05-02T01:41:36;97606.13;;;12.94;48.89
67397;BME280;57728;50.448;18.824;2023-05-02T01:43:41;97701.31;;;13.51;48.87
67397;BME280;57728;50.448;18.824;2023-05-02T01:45:47;97609.97;;;12.98;48.85
67397;BME280;57728;50.448;18.824;2023-05-02T01:47:51;97724.75;;;13.69;49.19
67397;BME280;57728;50.448;18.824;2023-05-02T01:49:57;97537.34;;;12.47;48.89
67397;BME280;57728;50.448;18.824;2023-05-02T01:52:07;97693.97;;;13.52;49.11
67397;BME280;57728;50.448;18.824;2023-05-02T01:54:14;97718.72;;;13.67;49.22
67397;BME280;57728;50.448;18.824;2023-05-02T01:56:19;97732.50;;;13.78;49.14
67397;BME280;57728;50.448;18.824;2023-05-02T01:58:29;97689.38;;;13.57;49.07
67397;BME280;57728;50.448;18.824;2023-05-02T02:00:35;97725.44;;;13.82;49.24
67397;BME280;57728;50.448;18.824;2023-05-02T02:02:44;97705.34;;;13.71;49.41
67397;BME280;57728;50.448;18.824;2023-05-02T02:04:50;97623.59;;;13.20;49.31
67397;BME280;57728;50.448;18.824;2023-05-02T02:07:01;97686.63;;;13.57;49.19
67397;BME280;57728;50.448;18.824;2023-05-02T02:09:07;97705.66;;;13.74;49.33
67397;BME280;57728;50.448;18.824;2023-05-02T02:11:12;97705.41;;;13.76;49.26
67397;BME280;57728;50.448;18.824;2023-05-02T02:13:26;97673.16;;;13.51;49.14
67397;BME280;57728;50.448;18.824;2023-05-02T02:15:37;97585.53;;;12.86;49.40
67397;BME280;57728;50.448;18.824;2023-05-02T02:17:48;97724.03;;;13.79;49.29
67397;BME280;57728;50.448;18.824;2023-05-02T02:20:00;97600.16;;;12.97;49.25
67397;BME280;57728;50.448;18.824;2023-05-02T02:22:07;97571.78;;;12.76;49.55
67397;BME280;57728;50.448;18.824;2023-05-02T02:24:12;97697.19;;;13.49;49.49
67397;BME280;57728;50.448;18.824;2023-05-02T02:26:19;97564.56;;;12.64;49.73
67397;BME280;57728;50.448;18.824;2023-05-02T02:28:23;97730.13;;;13.59;49.70
67397;BME280;57728;50.448;18.824;2023-05-02T02:30:24;97676.69;;;13.24;49.94
67397;BME280;57728;50.448;18.824;2023-05-02T02:32:25;97692.56;;;13.27;49.96
67397;BME280;57728;50.448;18.824;2023-05-02T02:34:28;97694.78;;;13.30;49.89
67397;BME280;57728;50.448;18.824;2023-05-02T02:36:54;97725.63;;;13.48;49.88
67397;BME280;57728;50.448;18.824;2023-05-02T02:49:09;97719.97;;;13.32;50.20
67397;BME280;57728;50.448;18.824;2023-05-02T02:51:30;97718.56;;;13.30;50.25
67397;BME280;57728;50.448;18.824;2023-05-02T02:54:12;97720.50;;;13.29;50.69
67397;BME280;57728;50.448;18.824;2023-05-02T02:56:46;97679.16;;;13.03;50.50
67397;BME280;57728;50.448;18.824;2023-05-02T02:59:18;97727.28;;;13.27;50.57
67397;BME280;57728;50.448;18.824;2023-05-02T03:01:30;97675.81;;;12.96;50.55
67397;BME280;57728;50.448;18.824;2023-05-02T03:03:33;97573.44;;;12.32;50.44
67397;BME280;57728;50.448;18.824;2023-05-02T03:05:37;97741.78;;;13.27;50.42
67397;BME280;57728;50.448;18.824;2023-05-02T03:07:40;97709.94;;;13.16;50.58
67397;BME280;57728;50.448;18.824;2023-05-02T03:09:46;97710.25;;;13.19;50.56
67397;BME280;57728;50.448;18.824;2023-05-02T03:11:56;97656.06;;;12.89;50.45
67397;BME280;57728;50.448;18.824;2023-05-02T03:13:59;97680.38;;;13.13;50.16
67397;BME280;57728;50.448;18.824;2023-05-02T03:18:41;97726.19;;;13.50;49.84
67397;BME280;57728;50.448;18.824;2023-05-02T03:20:43;97704.75;;;13.36;49.61
67397;BME280;57728;50.448;18.824;2023-05-02T03:22:44;97732.81;;;13.54;49.38
67397;BME280;57728;50.448;18.824;2023-05-02T03:24:47;97595.59;;;12.58;48.98
67397;BME280;57728;50.448;18.824;2023-05-02T03:26:49;97553.97;;;12.46;48.94
67397;BME280;57728;50.448;18.824;2023-05-02T03:28:55;97697.59;;;13.35;48.93
67397;BME280;57728;50.448;18.824;2023-05-02T03:31:04;97701.38;;;13.34;48.57
67397;BME280;57728;50.448;18.824;2023-05-02T03:33:09;97563.78;;;12.47;48.39
67397;BME280;57728;50.448;18.824;2023-05-02T03:35:15;97717.97;;;13.45;47.95
67397;BME280;57728;50.448;18.824;2023-05-02T03:37:21;97735.59;;;13.59;47.79
67397;BME280;57728;50.448;18.824;2023-05-02T03:39:22;97690.16;;;13.31;47.52
67397;BME280;57728;50.448;18.824;2023-05-02T03:41:26;97725.38;;;13.49;47.41
67397;BME280;57728;50.448;18.824;2023-05-02T03:43:35;97745.25;;;13.67;47.33
67397;BME280;57728;50.448;18.824;2023-05-02T03:45:37;97743.91;;;13.69;47.16
67397;BME280;57728;50.448;18.824;2023-05-02T03:47:38;97738.13;;;13.66;47.01
67397;BME280;57728;50.448;18.824;2023-05-02T03:49:41;97680.38;;;13.35;46.60
67397;BME280;57728;50.448;18.824;2023-05-02T03:51:44;97735.16;;;13.67;46.59
67397;BME280;57728;50.448;18.824;2023-05-02T03:53:46;97742.31;;;13.73;46.32
67397;BME280;57728;50.448;18.824;2023-05-02T03:55:48;97764.28;;;13.84;46.24
67397;BME280;57728;50.448;18.824;2023-05-02T03:57:58;97751.19;;;13.86;45.84
67397;BME280;57728;50.448;18.824;2023-05-02T03:59:59;97751.75;;;13.88;45.51
67397;BME280;57728;50.448;18.824;2023-05-02T04:02:02;97717.63;;;13.68;45.54
67397;BME280;57728;50.448;18.824;2023-05-02T04:04:13;97698.06;;;13.54;45.42
67397;BME280;57728;50.448;18.824;2023-05-02T04:06:21;97759.75;;;13.95;45.70
67397;BME280;57728;50.448;18.824;2023-05-02T04:08:28;97754.81;;;13.97;45.35
67397;BME280;57728;50.448;18.824;2023-05-02T04:10:30;97736.41;;;13.87;45.34
67397;BME280;57728;50.448;18.824;2023-05-02T04:12:34;97743.59;;;13.93;45.19
67397;BME280;57728;50.448;18.824;2023-05-02T04:14:37;97757.06;;;14.00;45.12
67397;BME280;57728;50.448;18.824;2023-05-02T04:16:39;97762.28;;;14.01;45.16
67397;BME280;57728;50.448;18.824;2023-05-02T04:18:40;97737.28;;;13.92;44.96
67397;BME280;57728;50.448;18.824;2023-05-02T04:20:43;97762.31;;;14.06;45.10
67397;BME280;57728;50.448;18.824;2023-05-02T04:22:50;97707.25;;;13.70;44.81
67397;BME280;57728;50.448;18.824;2023-05-02T04:24:52;97769.50;;;14.13;44.97
67397;BME280;57728;50.448;18.824;2023-05-02T04:26:55;97770.88;;;14.15;44.85
67397;BME280;57728;50.448;18.824;2023-05-02T04:28:56;97760.44;;;14.12;44.76
67397;BME280;57728;50.448;18.824;2023-05-02T04:30:58;97775.88;;;14.23;44.74
67397;BME280;57728;50.448;18.824;2023-05-02T04:33:01;97769.56;;;14.23;44.76
67397;BME280;57728;50.448;18.824;2023-05-02T04:35:07;97782.53;;;14.33;44.88
67397;BME280;57728;50.448;18.824;2023-05-02T04:37:10;97781.47;;;14.39;44.91
67397;BME280;57728;50.448;18.824;2023-05-02T04:39:13;97719.56;;;14.00;44.53
67397;BME280;57728;50.448;18.824;2023-05-02T04:41:19;97779.34;;;14.46;44.81
67397;BME280;57728;50.448;18.824;2023-05-02T04:43:27;97782.13;;;14.51;44.62
67397;BME280;57728;50.448;18.824;2023-05-02T04:45:34;97752.19;;;14.39;44.64
67397;BME280;57728;50.448;18.824;2023-05-02T04:47:37;97763.16;;;14.44;44.29
67397;BME280;57728;50.448;18.824;2023-05-02T04:49:41;97776.97;;;14.60;44.31
67397;BME280;57728;50.448;18.824;2023-05-02T04:51:44;97780.88;;;14.64;44.55
67397;BME280;57728;50.448;18.824;2023-05-02T04:53:45;97728.88;;;14.37;44.38
67397;BME280;57728;50.448;18.824;2023-05-02T04:55:47;97777.66;;;14.72;44.24
67397;BME280;57728;50.448;18.824;2023-05-02T04:57:51;97776.28;;;14.75;44.26
67397;BME280;57728;50.448;18.824;2023-05-02T04:59:53;97750.44;;;14.60;43.93
67397;BME280;57728;50.448;18.824;2023-05-02T05:01:55;97770.56;;;14.76;44.33
67397;BME280;57728;50.448;18.824;2023-05-02T05:03:57;97754.88;;;14.67;44.07
67397;BME280;57728;50.448;18.824;2023-05-02T05:05:59;97759.81;;;14.70;44.08
67397;BME280;57728;50.448;18.824;2023-05-02T05:08:02;97785.91;;;14.83;43.82
67397;BME280;57728;50.448;18.824;2023-05-02T05:10:07;97793.06;;;14.84;43.94
67397;BME280;57728;50.448;18.824;2023-05-02T05:12:15;97795.00;;;14.88;44.01
67397;BME280;57728;50.448;18.824;2023-05-02T05:14:17;97794.47;;;14.91;43.91
67397;BME280;57728;50.448;18.824;2023-05-02T05:16:23;97750.78;;;14.69;43.72
67397;BME280;57728;50.448;18.824;2023-05-02T05:18:25;97777.25;;;14.96;43.43
67397;BME280;57728;50.448;18.824;2023-05-02T05:20:27;97800.63;;;15.09;43.37
67397;BME280;57728;50.448;18.824;2023-05-02T05:22:38;97789.91;;;15.12;43.61
67397;BME280;57728;50.448;18.824;2023-05-02T05:24:40;97748.19;;;14.95;43.20
67397;BME280;57728;50.448;18.824;2023-05-02T05:26:41;97783.41;;;15.24;43.22
67397;BME280;57728;50.448;18.824;2023-05-02T05:28:44;97803.78;;;15.43;43.16
67397;BME280;57728;50.448;18.824;2023-05-02T05:30:46;97757.59;;;15.15;42.67
67397;BME280;57728;50.448;18.824;2023-05-02T05:32:52;97766.13;;;15.23;42.59
67397;BME280;57728;50.448;18.824;2023-05-02T05:34:54;97817.84;;;15.57;42.46
67397;BME280;57728;50.448;18.824;2023-05-02T05:36:59;97758.19;;;15.27;42.40
67397;BME280;57728;50.448;18.824;2023-05-02T05:39:01;97791.75;;;15.55;42.74
67397;BME280;57728;50.448;18.824;2023-05-02T05:41:05;97803.88;;;15.64;42.61
67397;BME280;57728;50.448;18.824;2023-05-02T05:43:08;97765.94;;;15.45;42.60
67397;BME280;57728;50.448;18.824;2023-05-02T05:45:12;97784.13;;;15.67;42.65
67397;BME280;57728;50.448;18.824;2023-05-02T05:47:21;97810.00;;;15.87;42.61
67397;BME280;57728;50.448;18.824;2023-05-02T05:49:23;97796.28;;;15.87;42.58
67397;BME280;57728;50.448;18.824;2023-05-02T05:51:25;97822.97;;;16.12;42.70
67397;BME280;57728;50.448;18.824;2023-05-02T05:53:32;97827.63;;;16.16;42.65
67397;BME280;57728;50.448;18.824;2023-05-02T05:55:35;97772.41;;;15.82;42.60
67397;BME280;57728;50.448;18.824;2023-05-02T05:57:38;97808.41;;;16.06;42.82
67397;BME280;57728;50.448;18.824;2023-05-02T05:59:40;97810.03;;;16.07;43.01
67397;BME280;57728;50.448;18.824;2023-05-02T06:01:42;97709.13;;;15.41;42.78
67397;BME280;57728;50.448;18.824;2023-05-02T06:03:44;97850.44;;;16.32;42.86
67397;BME280;57728;50.448;18.824;2023-05-02T06:05:47;97844.69;;;16.29;43.10
67397;BME280;57728;50.448;18.824;2023-05-02T06:07:48;97821.28;;;16.06;43.02
67397;BME280;57728;50.448;18.824;2023-05-02T06:09:49;97827.66;;;16.22;43.26
67397;BME280;57728;50.448;18.824;2023-05-02T06:11:51;97829.81;;;16.20;43.18
67397;BME280;57728;50.448;18.824;2023-05-02T06:13:53;97693.78;;;15.40;43.33
67397;BME280;57728;50.448;18.824;2023-05-02T06:15:59;97816.06;;;16.14;43.58
67397;BME280;57728;50.448;18.824;2023-05-02T06:18:03;97830.94;;;16.29;43.80
67397;BME280;57728;50.448;18.824;2023-05-02T06:20:05;97866.13;;;16.53;43.88
67397;BME280;57728;50.448;18.824;2023-05-02T06:22:06;97856.22;;;16.57;43.75
67397;BME280;57728;50.448;18.824;2023-05-02T06:24:09;97808.97;;;16.29;43.50
67397;BME280;57728;50.448;18.824;2023-05-02T06:26:11;97865.31;;;16.67;43.79
67397;BME280;57728;50.448;18.824;2023-05-02T06:28:12;97867.50;;;16.76;43.70
67397;BME280;57728;50.448;18.824;2023-05-02T06:30:14;97841.38;;;16.68;43.53
67397;BME280;57728;50.448;18.824;2023-05-02T06:32:15;97878.78;;;16.95;43.48
67397;BME280;57728;50.448;18.824;2023-05-02T06:34:16;97818.31;;;16.59;43.38
67397;BME280;57728;50.448;18.824;2023-05-02T06:36:18;97819.97;;;16.55;43.40
67397;BME280;57728;50.448;18.824;2023-05-02T06:38:20;97816.13;;;16.66;43.48
67397;BME280;57728;50.448;18.824;2023-05-02T06:40:22;97800.44;;;16.41;43.64
67397;BME280;57728;50.448;18.824;2023-05-02T06:42:24;97822.72;;;16.70;43.84
67397;BME280;57728;50.448;18.824;2023-05-02T06:44:25;97862.28;;;16.95;43.65
67397;BME280;57728;50.448;18.824;2023-05-02T06:46:29;97777.91;;;16.44;44.02
67397;BME280;57728;50.448;18.824;2023-05-02T06:48:32;97865.59;;;16.97;44.24
67397;BME280;57728;50.448;18.824;2023-05-02T06:50:36;97795.25;;;16.60;44.33
67397;BME280;57728;50.448;18.824;2023-05-02T06:52:38;97781.78;;;16.53;44.71
67397;BME280;57728;50.448;18.824;2023-05-02T06:54:40;97794.13;;;16.56;44.75
67397;BME280;57728;50.448;18.824;2023-05-02T06:56:42;97875.19;;;17.20;44.75
67397;BME280;57728;50.448;18.824;2023-05-02T06:58:43;97883.16;;;17.27;45.12
67397;BME280;57728;50.448;18.824;2023-05-02T07:00:45;97887.81;;;17.31;44.90
67397;BME280;57728;50.448;18.824;2023-05-02T07:02:48;97890.28;;;17.38;45.18
67397;BME280;57728;50.448;18.824;2023-05-02T07:04:49;97850.16;;;17.22;45.04
67397;BME280;57728;50.448;18.824;2023-05-02T07:06:56;97852.91;;;17.27;44.55
67397;BME280;57728;50.448;18.824;2023-05-02T07:08:58;97788.91;;;16.95;44.78
67397;BME280;57728;50.448;18.824;2023-05-02T07:10:59;97892.72;;;17.60;44.23
67397;BME280;57728;50.448;18.824;2023-05-02T07:13:01;97885.28;;;17.56;44.82
67397;BME280;57728;50.448;18.824;2023-05-02T07:15:04;97887.69;;;17.73;44.73
67397;BME280;57728;50.448;18.824;2023-05-02T07:17:07;97894.03;;;17.73;44.18
67397;BME280;57728;50.448;18.824;2023-05-02T07:19:09;97730.09;;;16.60;44.33
67397;BME280;57728;50.448;18.824;2023-05-02T07:21:11;97855.31;;;17.49;44.59
67397;BME280;57728;50.448;18.824;2023-05-02T07:23:13;97853.38;;;17.55;44.64
67397;BME280;57728;50.448;18.824;2023-05-02T07:25:15;97744.34;;;16.93;44.68
67397;BME280;57728;50.448;18.824;2023-05-02T07:27:16;97904.47;;;17.92;44.90
67397;BME280;57728;50.448;18.824;2023-05-02T07:29:17;97920.41;;;18.00;45.02
67397;BME280;57728;50.448;18.824;2023-05-02T07:31:19;97876.38;;;17.79;45.02
67397;BME280;57728;50.448;18.824;2023-05-02T07:33:21;97884.34;;;17.91;44.82
67397;BME280;57728;50.448;18.824;2023-05-02T07:35:23;97926.66;;;18.21;45.08
67397;BME280;57728;50.448;18.824;2023-05-02T07:37:25;97908.25;;;18.06;45.08
67397;BME280;57728;50.448;18.824;2023-05-02T07:39:27;97918.09;;;18.23;44.88
67397;BME280;57728;50.448;18.824;2023-05-02T07:41:28;97907.88;;;18.23;44.83
67397;BME280;57728;50.448;18.824;2023-05-02T07:43:30;97930.38;;;18.41;45.33
67397;BME280;57728;50.448;18.824;2023-05-02T07:45:32;97905.41;;;18.21;45.02
67397;BME280;57728;50.448;18.824;2023-05-02T07:47:33;97896.56;;;18.25;44.89
67397;BME280;57728;50.448;18.824;2023-05-02T07:49:35;97931.38;;;18.60;44.94
67397;BME280;57728;50.448;18.824;2023-05-02T07:51:37;97936.53;;;18.72;44.43
67397;BME280;57728;50.448;18.824;2023-05-02T07:53:39;97941.47;;;18.75;44.16
67397;BME280;57728;50.448;18.824;2023-05-02T07:55:41;97794.53;;;17.95;43.97
67397;BME280;57728;50.448;18.824;2023-05-02T07:57:42;97903.72;;;18.70;44.55
67397;BME280;57728;50.448;18.824;2023-05-02T07:59:44;97920.44;;;18.89;43.75
67397;BME280;57728;50.448;18.824;2023-05-02T08:01:46;97867.06;;;18.70;44.21
67397;BME280;57728;50.448;18.824;2023-05-02T08:03:47;97905.44;;;19.01;44.29
67397;BME280;57728;50.448;18.824;2023-05-02T08:05:49;97902.09;;;19.04;43.71
67397;BME280;57728;50.448;18.824;2023-05-02T08:07:52;97947.38;;;19.32;42.87
67397;BME280;57728;50.448;18.824;2023-05-02T08:09:53;97944.91;;;19.31;42.92
67397;BME280;57728;50.448;18.824;2023-05-02T08:11:54;97893.00;;;19.03;43.09
67397;BME280;57728;50.448;18.824;2023-05-02T08:13:56;97956.88;;;19.50;43.59
67397;BME280;57728;50.448;18.824;2023-05-02T08:15:57;97943.84;;;19.56;43.32
67397;BME280;57728;50.448;18.824;2023-05-02T08:18:01;97923.34;;;19.62;42.65
67397;BME280;57728;50.448;18.824;2023-05-02T08:20:03;97892.81;;;19.48;42.46
67397;BME280;57728;50.448;18.824;2023-05-02T08:22:05;97912.00;;;19.64;42.67
67397;BME280;57728;50.448;18.824;2023-05-02T08:24:06;97874.63;;;19.47;43.02
67397;BME280;57728;50.448;18.824;2023-05-02T08:26:08;97937.66;;;19.93;42.89
67397;BME280;57728;50.448;18.824;2023-05-02T08:28:11;97952.94;;;20.10;42.63
67397;BME280;57728;50.448;18.824;2023-05-02T08:30:12;97959.22;;;20.16;42.10
67397;BME280;57728;50.448;18.824;2023-05-02T08:32:23;97935.94;;;19.98;42.22
67397;BME280;57728;50.448;18.824;2023-05-02T08:34:26;97967.66;;;20.24;41.87
67397;BME280;57728;50.448;18.824;2023-05-02T08:36:27;97962.38;;;20.28;42.13
67397;BME280;57728;50.448;18.824;2023-05-02T08:38:29;97966.50;;;20.31;41.24
67397;BME280;57728;50.448;18.824;2023-05-02T08:40:35;97908.44;;;19.87;41.29
67397;BME280;57728;50.448;18.824;2023-05-02T08:42:41;97972.69;;;20.22;41.27
67397;BME280;57728;50.448;18.824;2023-05-02T08:44:44;97951.28;;;20.09;41.84
67397;BME280;57728;50.448;18.824;2023-05-02T08:46:49;97974.63;;;20.22;41.39
67397;BME280;57728;50.448;18.824;2023-05-02T08:48:57;97947.81;;;20.22;41.72
67397;BME280;57728;50.448;18.824;2023-05-02T08:51:02;97958.22;;;20.31;41.80
67397;BME280;57728;50.448;18.824;2023-05-02T08:53:07;97968.16;;;20.51;41.35
67397;BME280;57728;50.448;18.824;2023-05-02T08:55:11;97942.22;;;20.47;41.45
67397;BME280;57728;50.448;18.824;2023-05-02T08:57:14;97922.66;;;20.43;41.51
67397;BME280;57728;50.448;18.824;2023-05-02T08:59:15;97980.38;;;20.88;41.43
67397;BME280;57728;50.448;18.824;2023-05-02T09:01:18;97974.09;;;21.01;41.17
67397;BME280;57728;50.448;18.824;2023-05-02T09:03:31;97964.94;;;21.20;41.10
67397;BME280;57728;50.448;18.824;2023-05-02T09:05:39;97972.88;;;21.26;40.70
67397;BME280;57728;50.448;18.824;2023-05-02T09:07:47;97942.91;;;21.28;40.86
67397;BME280;57728;50.448;18.824;2023-05-02T09:09:49;97958.50;;;21.57;40.76
67397;BME280;57728;50.448;18.824;2023-05-02T09:11:51;97964.63;;;21.87;40.00
67397;BME280;57728;50.448;18.824;2023-05-02T09:13:52;97960.69;;;22.16;39.00
67397;BME280;57728;50.448;18.824;2023-05-02T09:16:09;97956.28;;;22.57;38.78
67397;BME280;57728;50.448;18.824;2023-05-02T09:18:18;97969.66;;;23.14;38.00
67397;BME280;57728;50.448;18.824;2023-05-02T09:20:21;97973.97;;;23.74;37.42
67397;BME280;57728;50.448;18.824;2023-05-02T09:22:23;97969.13;;;24.20;36.80
67397;BME280;57728;50.448;18.824;2023-05-02T09:24:27;97973.03;;;24.85;35.73
67397;BME280;57728;50.448;18.824;2023-05-02T09:26:30;97967.31;;;25.34;35.49
67397;BME280;57728;50.448;18.824;2023-05-02T09:31:09;97989.34;;;26.31;33.44
67397;BME280;57728;50.448;18.824;2023-05-02T09:33:25;97994.63;;;26.53;32.72
67397;BME280;57728;50.448;18.824;2023-05-02T09:35:28;97976.53;;;26.59;32.84
67397;BME280;57728;50.448;18.824;2023-05-02T09:37:35;97957.94;;;26.72;32.26
67397;BME280;57728;50.448;18.824;2023-05-02T09:39:36;97988.91;;;27.22;32.08
67397;BME280;57728;50.448;18.824;2023-05-02T09:41:43;97973.16;;;27.38;31.86
67397;BME280;57728;50.448;18.824;2023-05-02T09:43:56;97979.44;;;27.35;31.27
67397;BME280;57728;50.448;18.824;2023-05-02T09:46:03;97995.38;;;27.14;31.17
67397;BME280;57728;50.448;18.824;2023-05-02T09:48:07;97996.56;;;26.62;31.24
67397;BME280;57728;50.448;18.824;2023-05-02T09:50:08;98002.25;;;25.97;31.67
67397;BME280;57728;50.448;18.824;2023-05-02T09:52:14;98000.72;;;25.61;32.40
67397;BME280;57728;50.448;18.824;2023-05-02T09:54:36;98007.78;;;25.23;32.69
67397;BME280;57728;50.448;18.824;2023-05-02T09:56:53;98020.53;;;24.80;33.22
67397;BME280;57728;50.448;18.824;2023-05-02T09:59:15;98004.38;;;24.42;34.18
67397;BME280;57728;50.448;18.824;2023-05-02T10:01:18;97907.59;;;23.73;34.38
67397;BME280;57728;50.448;18.824;2023-05-02T10:03:23;98024.31;;;24.35;34.61
67397;BME280;57728;50.448;18.824;2023-05-02T10:05:27;97962.44;;;24.30;34.42
67397;BME280;57728;50.448;18.824;2023-05-02T10:07:30;98022.00;;;24.95;34.07
67397;BME280;57728;50.448;18.824;2023-05-02T10:09:35;98020.72;;;25.01;33.93
67397;BME280;57728;50.448;18.824;2023-05-02T10:11:43;98014.00;;;25.29;34.18
67397;BME280;57728;50.448;18.824;2023-05-02T10:13:47;98019.06;;;25.18;33.88
67397;BME280;57728;50.448;18.824;2023-05-02T10:15:55;98021.72;;;25.05;33.73
67397;BME280;57728;50.448;18.824;2023-05-02T10:18:06;97983.81;;;24.69;33.85
67397;BME280;57728;50.448;18.824;2023-05-02T10:20:22;97993.50;;;24.63;33.94
67397;BME280;57728;50.448;18.824;2023-05-02T10:22:28;98010.63;;;24.57;34.58
67397;BME280;57728;50.448;18.824;2023-05-02T10:24:31;98022.00;;;24.29;34.50
67397;BME280;57728;50.448;18.824;2023-05-02T10:26:35;98035.50;;;24.13;35.35
67397;BME280;57728;50.448;18.824;2023-05-02T10:28:37;97996.84;;;23.71;35.12
67397;BME280;57728;50.448;18.824;2023-05-02T10:30:40;98002.50;;;23.57;35.77
67397;BME280;57728;50.448;18.824;2023-05-02T10:32:47;98030.78;;;23.59;35.90
67397;BME280;57728;50.448;18.824;2023-05-02T10:34:57;97988.56;;;23.48;36.15
67397;BME280;57728;50.448;18.824;2023-05-02T10:37:03;98029.69;;;23.92;36.70
67397;BME280;57728;50.448;18.824;2023-05-02T10:39:05;98050.41;;;23.85;35.71
67397;BME280;57728;50.448;18.824;2023-05-02T10:41:14;98041.44;;;23.66;36.11
67397;BME280;57728;50.448;18.824;2023-05-02T10:43:19;98022.25;;;23.33;35.96
67397;BME280;57728;50.448;18.824;2023-05-02T10:45:35;98030.66;;;23.19;36.13
67397;BME280;57728;50.448;18.824;2023-05-02T10:47:37;98040.16;;;23.27;36.93
67397;BME280;57728;50.448;18.824;2023-05-02T10:49:59;97999.84;;;22.93;37.05
67397;BME280;57728;50.448;18.824;2023-05-02T10:52:27;98025.81;;;23.11;37.01
67397;BME280;57728;50.448;18.824;2023-05-02T10:54:33;98040.53;;;23.11;36.89
67397;BME280;57728;50.448;18.824;2023-05-02T10:56:34;98041.06;;;23.13;36.83
67397;BME280;57728;50.448;18.824;2023-05-02T10:59:27;98023.88;;;22.97;37.73
67397;BME280;57728;50.448;18.824;2023-05-02T11:04:03;98046.72;;;22.94;38.07
67397;BME280;57728;50.448;18.824;2023-05-02T11:06:06;98035.56;;;22.72;38.27
67397;BME280;57728;50.448;18.824;2023-05-02T11:12:51;98050.88;;;22.27;39.11
67397;BME280;57728;50.448;18.824;2023-05-02T11:14:54;98031.03;;;22.06;39.36
67397;BME280;57728;50.448;18.824;2023-05-02T11:18:59;97996.16;;;21.58;39.20
67397;BME280;57728;50.448;18.824;2023-05-02T11:21:23;98052.41;;;21.73;39.24
67397;BME280;57728;50.448;18.824;2023-05-02T11:23:28;98020.88;;;21.36;39.62
67397;BME280;57728;50.448;18.824;2023-05-02T11:25:36;97935.66;;;20.61;39.83
67397;BME280;57728;50.448;18.824;2023-05-02T11:27:38;97963.69;;;20.55;40.82
67397;BME280;57728;50.448;18.824;2023-05-02T11:29:54;98021.06;;;20.87;41.37